sensor_id;sensor_type;location;lat;lon;timestamp;pressure;altitude;pressure_sealevel;temperature;humidity
71194;BME280;58903;47.210;8.618;2024-01-11T00:00:11;94719.72;;;24.92;38.89
71194;BME280;58903;47.210;8.618;2024-01-11T00:02:46;94713.22;;;24.89;39.02
71194;BME280;58903;47.210;8.618;2024-01-11T00:05:12;94716.97;;;24.92;39.11
71194;BME280;58903;47.210;8.618;2024-01-11T00:07:38;94716.97;;;24.92;38.47
71194;BME280;58903;47.210;8.618;2024-01-11T00:10:14;94722.72;;;24.94;38.85
71194;BME280;58903;47.210;8.618;2024-01-11T00:12:42;94715.47;;;24.91;38.22
71194;BME280;58903;47.210;8.618;2024-01-11T00:15:08;94716.97;;;24.92;38.55
71194;BME280;58903;47.210;8.618;2024-01-11T00:18:14;94723.97;;;24.93;38.06
71194;BME280;58903;47.210;8.618;2024-01-11T00:20:40;94721.97;;;24.93;38.01
71194;BME280;58903;47.210;8.618;2024-01-11T00:23:09;94731.50;;;24.92;38.31
71194;BME280;58903;47.210;8.618;2024-01-11T00:25:46;94722.72;;;24.88;38.14
71194;BME280;58903;47.210;8.618;2024-01-11T00:28:12;94730.50;;;24.90;38.16
71194;BME280;58903;47.210;8.618;2024-01-11T00:30:40;94721.97;;;24.88;38.51
71194;BME280;58903;47.210;8.618;2024-01-11T00:33:19;94724.97;;;24.90;38.33
71194;BME280;58903;47.210;8.618;2024-01-11T00:35:55;94722.22;;;24.90;38.38
71194;BME280;58903;47.210;8.618;2024-01-11T00:38:21;94725.75;;;24.90;38.61
71194;BME280;58903;47.210;8.618;2024-01-11T00:40:53;94723.97;;;24.87;38.31
71194;BME280;58903;47.210;8.618;2024-01-11T00:43:20;94725.22;;;24.86;38.66
71194;BME280;58903;47.210;8.618;2024-01-11T00:46:03;94722.47;;;24.86;38.35
71194;BME280;58903;47.210;8.618;2024-01-11T00:48:57;94726.72;;;24.87;37.91
71194;BME280;58903;47.210;8.618;2024-01-11T00:51:34;94724.97;;;24.84;38.32
71194;BME280;58903;47.210;8.618;2024-01-11T00:54:03;94725.97;;;24.87;37.62
71194;BME280;58903;47.210;8.618;2024-01-11T00:56:32;94728.97;;;24.89;37.93
71194;BME280;58903;47.210;8.618;2024-01-11T00:59:10;94726.72;;;24.87;37.93
71194;BME280;58903;47.210;8.618;2024-01-11T01:01:56;94725.97;;;24.87;38.61
71194;BME280;58903;47.210;8.618;2024-01-11T01:04:37;94733.97;;;24.85;37.79
71194;BME280;58903;47.210;8.618;2024-01-11T01:07:24;94725.72;;;24.85;38.17
71194;BME280;58903;47.210;8.618;2024-01-11T01:09:51;94733.97;;;24.85;37.83
71194;BME280;58903;47.210;8.618;2024-01-11T01:12:42;94729.97;;;24.86;38.56
71194;BME280;58903;47.210;8.618;2024-01-11T01:15:09;94725.47;;;24.83;38.22
71194;BME280;58903;47.210;8.618;2024-01-11T01:17:39;94739.72;;;24.87;38.64
71194;BME280;58903;47.210;8.618;2024-01-11T01:20:06;94733.97;;;24.85;38.46
71194;BME280;58903;47.210;8.618;2024-01-11T01:22:32;94727.47;;;24.82;37.91
71194;BME280;58903;47.210;8.618;2024-01-11T01:24:58;94739.72;;;24.87;37.54
71194;BME280;58903;47.210;8.618;2024-01-11T01:27:28;94742.97;;;24.85;38.34
71194;BME280;58903;47.210;8.618;2024-01-11T01:29:55;94745.22;;;24.87;37.60
71194;BME280;58903;47.210;8.618;2024-01-11T01:32:34;94748.75;;;24.87;37.67
71194;BME280;58903;47.210;8.618;2024-01-11T01:35:01;94755.72;;;24.88;38.00
71194;BME280;58903;47.210;8.618;2024-01-11T01:37:41;94748.47;;;24.91;37.48
71194;BME280;58903;47.210;8.618;2024-01-11T01:40:11;94746.25;;;24.89;37.68
71194;BME280;58903;47.210;8.618;2024-01-11T01:42:58;94752.00;;;24.91;38.21
71194;BME280;58903;47.210;8.618;2024-01-11T01:45:27;94762.75;;;24.89;38.05
71194;BME280;58903;47.210;8.618;2024-01-11T01:47:55;94759.75;;;24.87;37.55
71194;BME280;58903;47.210;8.618;2024-01-11T01:50:21;94769.00;;;24.90;38.40
71194;BME280;58903;47.210;8.618;2024-01-11T01:55:43;94767.75;;;24.91;38.31
71194;BME280;58903;47.210;8.618;2024-01-11T01:58:31;94766.25;;;24.90;37.99
71194;BME280;58903;47.210;8.618;2024-01-11T02:01:08;94765.25;;;24.87;37.98
71194;BME280;58903;47.210;8.618;2024-01-11T02:03:59;94775.28;;;24.90;37.91
71194;BME280;58903;47.210;8.618;2024-01-11T02:06:28;94773.75;;;24.89;38.41
71194;BME280;58903;47.210;8.618;2024-01-11T02:08:59;94778.03;;;24.90;38.34
71194;BME280;58903;47.210;8.618;2024-01-11T02:11:33;94777.25;;;24.90;38.11
71194;BME280;58903;47.210;8.618;2024-01-11T02:14:10;94776.75;;;24.91;37.80
71194;BME280;58903;47.210;8.618;2024-01-11T02:16:37;94787.75;;;24.91;37.77
71194;BME280;58903;47.210;8.618;2024-01-11T02:19:07;94780.78;;;24.90;38.12
71194;BME280;58903;47.210;8.618;2024-01-11T02:21:35;94781.50;;;24.91;38.31
71194;BME280;58903;47.210;8.618;2024-01-11T02:24:04;94787.75;;;24.91;37.64
71194;BME280;58903;47.210;8.618;2024-01-11T02:26:35;94782.25;;;24.91;38.20
71194;BME280;58903;47.210;8.618;2024-01-11T02:29:23;94781.50;;;24.91;38.08
71194;BME280;58903;47.210;8.618;2024-01-11T02:31:51;94784.50;;;24.93;37.69
71194;BME280;58903;47.210;8.618;2024-01-11T02:34:28;94774.75;;;24.86;37.23
71194;BME280;58903;47.210;8.618;2024-01-11T02:37:05;94787.75;;;24.91;37.86
71194;BME280;58903;47.210;8.618;2024-01-11T02:40:04;94779.25;;;24.89;37.19
71194;BME280;58903;47.210;8.618;2024-01-11T02:42:31;94781.50;;;24.91;37.67
71194;BME280;58903;47.210;8.618;2024-01-11T02:44:57;94775.50;;;24.87;37.32
71194;BME280;58903;47.210;8.618;2024-01-11T02:47:29;94775.75;;;24.89;37.90
71194;BME280;58903;47.210;8.618;2024-01-11T02:49:55;94782.78;;;24.90;37.43
71194;BME280;58903;47.210;8.618;2024-01-11T02:52:41;94771.25;;;24.86;37.57
71194;BME280;58903;47.210;8.618;2024-01-11T02:55:08;94776.50;;;24.89;37.99
71194;BME280;58903;47.210;8.618;2024-01-11T02:57:34;94771.00;;;24.89;37.21
71194;BME280;58903;47.210;8.618;2024-01-11T03:00:02;94777.00;;;24.88;37.94
71194;BME280;58903;47.210;8.618;2024-01-11T03:02:30;94772.25;;;24.88;37.73
71194;BME280;58903;47.210;8.618;2024-01-11T03:04:56;94775.00;;;24.83;37.39
71194;BME280;58903;47.210;8.618;2024-01-11T03:07:35;94776.50;;;24.84;37.50
71194;BME280;58903;47.210;8.618;2024-01-11T03:10:03;94779.50;;;24.86;37.72
71194;BME280;58903;47.210;8.618;2024-01-11T03:12:29;94772.50;;;24.85;37.65
71194;BME280;58903;47.210;8.618;2024-01-11T03:14:55;94773.00;;;24.89;38.02
71194;BME280;58903;47.210;8.618;2024-01-11T03:17:21;94766.25;;;24.90;37.70
71194;BME280;58903;47.210;8.618;2024-01-11T03:19:47;94766.00;;;24.88;37.90
71194;BME280;58903;47.210;8.618;2024-01-11T03:22:13;94767.50;;;24.89;37.59
71194;BME280;58903;47.210;8.618;2024-01-11T03:24:41;94760.00;;;24.89;37.78
71194;BME280;58903;47.210;8.618;2024-01-11T03:27:08;94758.00;;;24.90;37.66
71194;BME280;58903;47.210;8.618;2024-01-11T03:29:35;94759.25;;;24.89;38.06
71194;BME280;58903;47.210;8.618;2024-01-11T03:32:30;94764.25;;;24.90;38.01
71194;BME280;58903;47.210;8.618;2024-01-11T03:35:33;94761.50;;;24.90;36.96
71194;BME280;58903;47.210;8.618;2024-01-11T03:37:59;94756.50;;;24.89;37.96
71194;BME280;58903;47.210;8.618;2024-01-11T03:40:26;94754.75;;;24.91;37.78
71194;BME280;58903;47.210;8.618;2024-01-11T03:42:53;94758.00;;;24.90;37.36
71194;BME280;58903;47.210;8.618;2024-01-11T03:45:32;94756.50;;;24.89;37.30
71194;BME280;58903;47.210;8.618;2024-01-11T03:48:07;94758.00;;;24.90;36.98
71194;BME280;58903;47.210;8.618;2024-01-11T03:50:36;94754.25;;;24.87;37.02
71194;BME280;58903;47.210;8.618;2024-01-11T03:53:12;94747.72;;;24.85;37.47
71194;BME280;58903;47.210;8.618;2024-01-11T03:55:43;94752.00;;;24.86;38.10
71194;BME280;58903;47.210;8.618;2024-01-11T03:58:13;94750.97;;;24.89;37.18
71194;BME280;58903;47.210;8.618;2024-01-11T04:00:40;94750.50;;;24.90;37.90
71194;BME280;58903;47.210;8.618;2024-01-11T04:03:07;94754.75;;;24.91;37.43
71194;BME280;58903;47.210;8.618;2024-01-11T04:05:33;94742.97;;;24.91;37.08
71194;BME280;58903;47.210;8.618;2024-01-11T04:08:08;94751.22;;;24.91;37.67
71194;BME280;58903;47.210;8.618;2024-01-11T04:10:44;94749.50;;;24.93;36.82
71194;BME280;58903;47.210;8.618;2024-01-11T04:13:15;94749.25;;;24.91;37.60
71194;BME280;58903;47.210;8.618;2024-01-11T04:15:47;94748.72;;;24.93;37.53
71194;BME280;58903;47.210;8.618;2024-01-11T04:18:19;94747.75;;;24.90;37.11
71194;BME280;58903;47.210;8.618;2024-01-11T04:20:45;94748.72;;;24.93;37.31
71194;BME280;58903;47.210;8.618;2024-01-11T04:23:11;94747.25;;;24.92;37.01
71194;BME280;58903;47.210;8.618;2024-01-11T04:25:39;94747.75;;;24.90;37.09
71194;BME280;58903;47.210;8.618;2024-01-11T04:28:05;94739.75;;;24.92;37.28
71194;BME280;58903;47.210;8.618;2024-01-11T04:30:34;94745.97;;;24.93;37.41
71194;BME280;58903;47.210;8.618;2024-01-11T04:33:02;94750.75;;;24.92;37.28
71194;BME280;58903;47.210;8.618;2024-01-11T04:35:28;94742.97;;;24.91;37.69
71194;BME280;58903;47.210;8.618;2024-01-11T04:37:54;94739.00;;;24.92;36.83
71194;BME280;58903;47.210;8.618;2024-01-11T04:40:28;94736.25;;;24.92;37.69
71194;BME280;58903;47.210;8.618;2024-01-11T04:43:01;94737.47;;;24.91;37.13
71194;BME280;58903;47.210;8.618;2024-01-11T04:45:27;94734.00;;;24.90;37.17
71194;BME280;58903;47.210;8.618;2024-01-11T04:48:07;94739.97;;;24.89;37.05
71194;BME280;58903;47.210;8.618;2024-01-11T04:54:05;94743.50;;;24.89;37.82
71194;BME280;58903;47.210;8.618;2024-01-11T04:56:40;94745.47;;;24.89;37.83
71194;BME280;58903;47.210;8.618;2024-01-11T04:59:13;94743.25;;;24.87;37.78
71194;BME280;58903;47.210;8.618;2024-01-11T05:01:39;94747.97;;;24.87;36.97
71194;BME280;58903;47.210;8.618;2024-01-11T05:04:08;94731.72;;;24.83;37.12
71194;BME280;58903;47.210;8.618;2024-01-11T05:07:13;94740.47;;;24.87;37.23
71194;BME280;58903;47.210;8.618;2024-01-11T05:09:39;94740.47;;;24.87;37.12
71194;BME280;58903;47.210;8.618;2024-01-11T05:12:14;94736.72;;;24.85;37.61
71194;BME280;58903;47.210;8.618;2024-01-11T05:14:40;94729.72;;;24.84;37.07
71194;BME280;58903;47.210;8.618;2024-01-11T05:17:08;94736.97;;;24.87;36.90
71194;BME280;58903;47.210;8.618;2024-01-11T05:19:35;94734.72;;;24.85;36.80
71194;BME280;58903;47.210;8.618;2024-01-11T05:22:01;94728.47;;;24.85;36.90
71194;BME280;58903;47.210;8.618;2024-01-11T05:24:27;94736.22;;;24.86;37.74
71194;BME280;58903;47.210;8.618;2024-01-11T05:27:05;94733.97;;;24.85;37.14
71194;BME280;58903;47.210;8.618;2024-01-11T05:29:43;94725.72;;;24.85;36.73
71194;BME280;58903;47.210;8.618;2024-01-11T05:32:23;94725.97;;;24.87;37.08
71194;BME280;58903;47.210;8.618;2024-01-11T05:34:53;94734.72;;;24.85;37.64
71194;BME280;58903;47.210;8.618;2024-01-11T05:37:28;94730.72;;;24.86;37.68
71194;BME280;58903;47.210;8.618;2024-01-11T05:39:54;94732.47;;;24.84;36.99
71194;BME280;58903;47.210;8.618;2024-01-11T05:42:23;94726.47;;;24.85;36.89
71194;BME280;58903;47.210;8.618;2024-01-11T05:44:51;94720.72;;;24.83;37.64
71194;BME280;58903;47.210;8.618;2024-01-11T05:47:27;94727.47;;;24.82;37.21
71194;BME280;58903;47.210;8.618;2024-01-11T05:50:25;94729.22;;;24.85;36.89
71194;BME280;58903;47.210;8.618;2024-01-11T05:53:17;94724.72;;;24.82;37.86
71194;BME280;58903;47.210;8.618;2024-01-11T05:56:09;94735.72;;;24.82;37.39
71194;BME280;58903;47.210;8.618;2024-01-11T05:59:06;94738.72;;;24.84;36.76
71194;BME280;58903;47.210;8.618;2024-01-11T06:01:40;94728.22;;;24.83;37.09
71194;BME280;58903;47.210;8.618;2024-01-11T06:04:06;94733.47;;;24.81;36.90
71194;BME280;58903;47.210;8.618;2024-01-11T06:06:41;94740.22;;;24.85;36.82
71194;BME280;58903;47.210;8.618;2024-01-11T06:09:09;94738.00;;;24.84;37.89
71194;BME280;58903;47.210;8.618;2024-01-11T06:11:48;94733.97;;;24.85;37.33
71194;BME280;58903;47.210;8.618;2024-01-11T06:14:15;94732.75;;;24.86;37.52
71194;BME280;58903;47.210;8.618;2024-01-11T06:16:50;94728.22;;;24.83;37.38
71194;BME280;58903;47.210;8.618;2024-01-11T06:19:21;94737.72;;;24.87;37.18
71194;BME280;58903;47.210;8.618;2024-01-11T06:21:49;94731.97;;;24.85;37.68
71194;BME280;58903;47.210;8.618;2024-01-11T06:24:17;94747.75;;;24.90;38.13
71194;BME280;58903;47.210;8.618;2024-01-11T06:26:56;94742.72;;;24.89;38.54
71194;BME280;58903;47.210;8.618;2024-01-11T06:29:38;94748.47;;;24.91;37.27
71194;BME280;58903;47.210;8.618;2024-01-11T06:32:28;94740.00;;;25.00;37.56
71194;BME280;58903;47.210;8.618;2024-01-11T06:35:03;94744.53;;;25.03;37.98
71194;BME280;58903;47.210;8.618;2024-01-11T06:37:34;94737.75;;;25.04;36.88
71194;BME280;58903;47.210;8.618;2024-01-11T06:40:09;94738.00;;;25.06;36.81
71194;BME280;58903;47.210;8.618;2024-01-11T06:42:49;94746.50;;;25.08;37.00
71194;BME280;58903;47.210;8.618;2024-01-11T06:45:28;94756.75;;;25.02;37.20
71194;BME280;58903;47.210;8.618;2024-01-11T06:48:04;94757.53;;;25.02;36.87
71194;BME280;58903;47.210;8.618;2024-01-11T06:50:44;94761.03;;;25.03;36.94
71194;BME280;58903;47.210;8.618;2024-01-11T06:53:41;94759.28;;;25.05;36.41
71194;BME280;58903;47.210;8.618;2024-01-11T06:56:34;94765.53;;;25.06;36.88
71194;BME280;58903;47.210;8.618;2024-01-11T06:58:59;94765.78;;;25.02;36.35
71194;BME280;58903;47.210;8.618;2024-01-11T07:01:25;94772.25;;;24.99;36.48
71194;BME280;58903;47.210;8.618;2024-01-11T07:03:52;94776.50;;;24.95;36.77
71194;BME280;58903;47.210;8.618;2024-01-11T07:06:28;94776.50;;;24.95;37.08
71194;BME280;58903;47.210;8.618;2024-01-11T07:09:00;94776.50;;;24.95;36.50
71194;BME280;58903;47.210;8.618;2024-01-11T07:14:33;94784.00;;;24.89;37.07
71194;BME280;58903;47.210;8.618;2024-01-11T07:17:12;94785.78;;;24.92;36.22
71194;BME280;58903;47.210;8.618;2024-01-11T07:19:49;94796.53;;;24.90;37.43
71194;BME280;58903;47.210;8.618;2024-01-11T07:22:15;94795.75;;;24.89;36.58
71194;BME280;58903;47.210;8.618;2024-01-11T07:24:41;94792.00;;;24.87;36.89
71194;BME280;58903;47.210;8.618;2024-01-11T07:27:13;94794.53;;;24.90;36.86
71194;BME280;58903;47.210;8.618;2024-01-11T07:29:58;94806.03;;;24.94;36.88
71194;BME280;58903;47.210;8.618;2024-01-11T07:32:35;94812.03;;;24.93;36.84
71194;BME280;58903;47.210;8.618;2024-01-11T07:35:05;94809.28;;;24.93;36.85
71194;BME280;58903;47.210;8.618;2024-01-11T07:37:51;94806.00;;;24.89;37.55
71194;BME280;58903;47.210;8.618;2024-01-11T07:40:25;94798.50;;;24.89;36.74
71194;BME280;58903;47.210;8.618;2024-01-11T07:42:52;94803.03;;;24.92;37.57
71194;BME280;58903;47.210;8.618;2024-01-11T07:45:34;94806.53;;;24.93;36.59
71194;BME280;58903;47.210;8.618;2024-01-11T07:48:01;94810.53;;;24.92;37.60
71194;BME280;58903;47.210;8.618;2024-01-11T07:50:31;94806.25;;;24.91;37.32
71194;BME280;58903;47.210;8.618;2024-01-11T07:53:07;94810.03;;;24.88;36.89
71194;BME280;58903;47.210;8.618;2024-01-11T07:55:34;94815.78;;;24.90;37.84
71194;BME280;58903;47.210;8.618;2024-01-11T07:58:30;94819.78;;;24.89;37.74
71194;BME280;58903;47.210;8.618;2024-01-11T08:01:15;94820.03;;;24.85;36.91
71194;BME280;58903;47.210;8.618;2024-01-11T08:07:21;94816.25;;;24.83;37.18
71194;BME280;58903;47.210;8.618;2024-01-11T08:09:55;94827.03;;;24.92;37.69
71194;BME280;58903;47.210;8.618;2024-01-11T08:12:46;94829.28;;;24.93;37.00
71194;BME280;58903;47.210;8.618;2024-01-11T08:15:21;94825.03;;;24.87;37.48
71194;BME280;58903;47.210;8.618;2024-01-11T08:18:07;94834.53;;;24.86;36.81
71194;BME280;58903;47.210;8.618;2024-01-11T08:20:36;94840.03;;;24.86;37.28
71194;BME280;58903;47.210;8.618;2024-01-11T08:23:01;94840.53;;;24.90;37.35
71194;BME280;58903;47.210;8.618;2024-01-11T08:25:30;94837.03;;;24.95;37.17
71194;BME280;58903;47.210;8.618;2024-01-11T08:28:02;94839.28;;;24.91;37.57
71194;BME280;58903;47.210;8.618;2024-01-11T08:31:04;94840.53;;;24.90;37.19
71194;BME280;58903;47.210;8.618;2024-01-11T08:33:30;94855.53;;;24.89;37.99
71194;BME280;58903;47.210;8.618;2024-01-11T08:36:11;94854.56;;;24.92;37.60
71194;BME280;58903;47.210;8.618;2024-01-11T08:38:52;94845.03;;;24.93;37.49
71194;BME280;58903;47.210;8.618;2024-01-11T08:41:51;94857.06;;;24.95;36.77
71194;BME280;58903;47.210;8.618;2024-01-11T08:44:30;94843.03;;;24.88;37.08
71194;BME280;58903;47.210;8.618;2024-01-11T08:47:07;94856.03;;;24.87;37.69
71194;BME280;58903;47.210;8.618;2024-01-11T08:50:06;94851.56;;;24.90;37.86
71194;BME280;58903;47.210;8.618;2024-01-11T08:52:36;94853.03;;;24.91;37.30
71194;BME280;58903;47.210;8.618;2024-01-11T08:55:05;94845.81;;;24.93;37.11
71194;BME280;58903;47.210;8.618;2024-01-11T08:57:59;94854.81;;;24.94;37.91
71194;BME280;58903;47.210;8.618;2024-01-11T09:00:45;94854.56;;;24.92;37.15
71194;BME280;58903;47.210;8.618;2024-01-11T09:03:24;94853.81;;;24.91;36.91
71194;BME280;58903;47.210;8.618;2024-01-11T09:05:59;94854.56;;;24.92;37.97
71194;BME280;58903;47.210;8.618;2024-01-11T09:08:44;94853.56;;;24.95;37.39
71194;BME280;58903;47.210;8.618;2024-01-11T09:11:11;94850.59;;;24.98;36.90
71194;BME280;58903;47.210;8.618;2024-01-11T09:13:37;94847.06;;;24.98;37.72
71194;BME280;58903;47.210;8.618;2024-01-11T09:16:03;94848.59;;;24.99;37.67
71194;BME280;58903;47.210;8.618;2024-01-11T09:18:42;94841.56;;;24.98;37.77
71194;BME280;58903;47.210;8.618;2024-01-11T09:21:11;94840.34;;;24.99;37.32
71194;BME280;58903;47.210;8.618;2024-01-11T09:23:37;94844.31;;;24.98;37.42
71194;BME280;58903;47.210;8.618;2024-01-11T09:26:05;94857.31;;;24.97;37.25
71194;BME280;58903;47.210;8.618;2024-01-11T09:28:42;94866.59;;;24.94;37.19
71194;BME280;58903;47.210;8.618;2024-01-11T09:31:18;94871.56;;;24.90;37.74
71194;BME280;58903;47.210;8.618;2024-01-11T09:33:47;94876.38;;;25.01;37.35
71194;BME280;58903;47.210;8.618;2024-01-11T09:36:34;94867.59;;;25.08;36.51
71194;BME280;58903;47.210;8.618;2024-01-11T09:39:08;94871.88;;;25.09;36.58
71194;BME280;58903;47.210;8.618;2024-01-11T09:41:36;94874.88;;;25.05;36.88
71194;BME280;58903;47.210;8.618;2024-01-11T09:44:25;94875.13;;;25.07;37.20
71194;BME280;58903;47.210;8.618;2024-01-11T09:50:16;94881.38;;;25.08;37.12
71194;BME280;58903;47.210;8.618;2024-01-11T09:53:04;94885.63;;;25.09;37.65
71194;BME280;58903;47.210;8.618;2024-01-11T09:55:40;94882.88;;;25.09;36.77
71194;BME280;58903;47.210;8.618;2024-01-11T10:01:28;94879.16;;;25.12;37.45
71194;BME280;58903;47.210;8.618;2024-01-11T10:04:15;94881.66;;;25.10;36.62
71194;BME280;58903;47.210;8.618;2024-01-11T10:10:05;94868.38;;;25.08;37.43
71194;BME280;58903;47.210;8.618;2024-01-11T10:12:49;94866.38;;;25.03;36.74
71194;BME280;58903;47.210;8.618;2024-01-11T10:15:32;94869.13;;;25.09;37.29
71194;BME280;58903;47.210;8.618;2024-01-11T10:18:17;94864.13;;;25.07;37.17
71194;BME280;58903;47.210;8.618;2024-01-11T10:20:48;94854.59;;;25.08;36.49
71194;BME280;58903;47.210;8.618;2024-01-11T10:23:14;94860.38;;;25.10;36.59
71194;BME280;58903;47.210;8.618;2024-01-11T10:25:51;94855.38;;;25.14;36.44
71194;BME280;58903;47.210;8.618;2024-01-11T10:28:19;94846.38;;;25.14;36.56
71194;BME280;58903;47.210;8.618;2024-01-11T10:30:47;94843.63;;;25.14;37.31
71194;BME280;58903;47.210;8.618;2024-01-11T10:33:14;94854.63;;;25.14;37.13
71194;BME280;58903;47.210;8.618;2024-01-11T10:35:41;94852.91;;;25.16;36.56
71194;BME280;58903;47.210;8.618;2024-01-11T10:38:09;94857.13;;;25.12;37.33
71194;BME280;58903;47.210;8.618;2024-01-11T10:40:53;94859.88;;;25.17;37.45
71194;BME280;58903;47.210;8.618;2024-01-11T10:43:23;94856.38;;;25.17;36.67
71194;BME280;58903;47.210;8.618;2024-01-11T10:45:55;94858.41;;;25.16;36.65
71194;BME280;58903;47.210;8.618;2024-01-11T10:48:33;94861.88;;;25.17;36.42
71194;BME280;58903;47.210;8.618;2024-01-11T10:51:05;94860.66;;;25.18;37.02
71194;BME280;58903;47.210;8.618;2024-01-11T10:53:47;94858.13;;;25.14;36.55
71194;BME280;58903;47.210;8.618;2024-01-11T10:56:20;94860.88;;;25.14;37.23
71194;BME280;58903;47.210;8.618;2024-01-11T10:58:46;94862.38;;;25.15;37.40
71194;BME280;58903;47.210;8.618;2024-01-11T11:01:29;94872.41;;;25.18;37.42
71194;BME280;58903;47.210;8.618;2024-01-11T11:04:31;94859.13;;;25.17;37.18
71194;BME280;58903;47.210;8.618;2024-01-11T11:07:37;94859.38;;;25.19;37.25
71194;BME280;58903;47.210;8.618;2024-01-11T11:10:24;94858.41;;;25.16;37.38
71194;BME280;58903;47.210;8.618;2024-01-11T11:12:59;94851.88;;;25.19;36.60
71194;BME280;58903;47.210;8.618;2024-01-11T11:15:45;94861.66;;;25.20;36.78
71194;BME280;58903;47.210;8.618;2024-01-11T11:18:41;94857.91;;;25.18;37.44
71194;BME280;58903;47.210;8.618;2024-01-11T11:21:10;94860.66;;;25.18;37.06
71194;BME280;58903;47.210;8.618;2024-01-11T11:23:37;94860.66;;;25.18;37.30
71194;BME280;58903;47.210;8.618;2024-01-11T11:26:06;94854.63;;;25.14;37.49
71194;BME280;58903;47.210;8.618;2024-01-11T11:28:35;94854.13;;;25.15;36.71
71194;BME280;58903;47.210;8.618;2024-01-11T11:31:13;94856.13;;;25.15;37.39
71194;BME280;58903;47.210;8.618;2024-01-11T11:33:40;94856.13;;;25.15;36.46
71194;BME280;58903;47.210;8.618;2024-01-11T11:36:28;94852.13;;;25.16;37.22
71194;BME280;58903;47.210;8.618;2024-01-11T11:39:03;94837.34;;;25.19;37.14
71194;BME280;58903;47.210;8.618;2024-01-11T11:41:31;94841.13;;;25.16;36.87
71194;BME280;58903;47.210;8.618;2024-01-11T11:44:04;94835.63;;;25.16;36.96
71194;BME280;58903;47.210;8.618;2024-01-11T11:46:34;94838.13;;;25.19;36.77
71194;BME280;58903;47.210;8.618;2024-01-11T11:49:10;94823.09;;;25.15;37.21
71194;BME280;58903;47.210;8.618;2024-01-11T11:52:01;94822.88;;;25.18;37.25
71194;BME280;58903;47.210;8.618;2024-01-11T11:54:29;94821.84;;;25.16;36.62
71194;BME280;58903;47.210;8.618;2024-01-11T11:57:26;94823.34;;;25.11;36.40
71194;BME280;58903;47.210;8.618;2024-01-11T12:00:26;94818.34;;;25.15;37.40
71194;BME280;58903;47.210;8.618;2024-01-11T12:03:32;94812.34;;;25.17;36.77
71194;BME280;58903;47.210;8.618;2024-01-11T12:06:30;94809.09;;;25.18;37.45
71194;BME280;58903;47.210;8.618;2024-01-11T12:08:56;94812.59;;;25.19;36.63
71194;BME280;58903;47.210;8.618;2024-01-11T12:14:57;94797.34;;;25.18;36.65
71194;BME280;58903;47.210;8.618;2024-01-11T12:17:34;94800.84;;;25.18;36.56
71194;BME280;58903;47.210;8.618;2024-01-11T12:20:00;94798.81;;;25.19;36.80
71194;BME280;58903;47.210;8.618;2024-01-11T12:22:26;94799.81;;;25.21;36.52
71194;BME280;58903;47.210;8.618;2024-01-11T12:24:52;94797.59;;;25.20;37.20
71194;BME280;58903;47.210;8.618;2024-01-11T12:27:19;94802.06;;;25.23;36.70
71194;BME280;58903;47.210;8.618;2024-01-11T12:30:05;94803.59;;;25.24;37.30
71194;BME280;58903;47.210;8.618;2024-01-11T12:35:42;94795.09;;;25.22;37.40
71194;BME280;58903;47.210;8.618;2024-01-11T12:38:28;94797.06;;;25.21;36.87
71194;BME280;58903;47.210;8.618;2024-01-11T12:41:22;94795.59;;;25.26;36.85
71194;BME280;58903;47.210;8.618;2024-01-11T12:43:58;94796.09;;;25.24;37.23
71194;BME280;58903;47.210;8.618;2024-01-11T12:46:25;94792.59;;;25.24;36.75
71194;BME280;58903;47.210;8.618;2024-01-11T12:48:52;94792.09;;;25.20;37.02
71194;BME280;58903;47.210;8.618;2024-01-11T12:51:20;94787.09;;;25.18;36.95
71194;BME280;58903;47.210;8.618;2024-01-11T12:54:00;94787.56;;;25.17;36.45
71194;BME280;58903;47.210;8.618;2024-01-11T12:56:44;94795.84;;;25.22;36.70
71194;BME280;58903;47.210;8.618;2024-01-11T12:59:11;94800.34;;;25.25;36.18
71194;BME280;58903;47.210;8.618;2024-01-11T13:01:56;94803.84;;;25.26;37.24
71194;BME280;58903;47.210;8.618;2024-01-11T13:04:52;94807.59;;;25.28;37.22
71194;BME280;58903;47.210;8.618;2024-01-11T13:07:36;94807.09;;;25.24;36.51
71194;BME280;58903;47.210;8.618;2024-01-11T13:10:04;94805.09;;;25.25;36.25
71194;BME280;58903;47.210;8.618;2024-01-11T13:12:32;94790.56;;;25.19;37.09
71194;BME280;58903;47.210;8.618;2024-01-11T13:15:01;94798.09;;;25.24;37.18
71194;BME280;58903;47.210;8.618;2024-01-11T13:17:28;94796.31;;;25.21;36.86
71194;BME280;58903;47.210;8.618;2024-01-11T13:19:53;94807.34;;;25.26;37.30
71194;BME280;58903;47.210;8.618;2024-01-11T13:22:19;94813.09;;;25.23;37.32
71194;BME280;58903;47.210;8.618;2024-01-11T13:24:47;94818.88;;;25.25;37.21
71194;BME280;58903;47.210;8.618;2024-01-11T13:27:13;94817.34;;;25.24;36.87
71194;BME280;58903;47.210;8.618;2024-01-11T13:29:39;94817.59;;;25.26;36.97
71194;BME280;58903;47.210;8.618;2024-01-11T13:32:07;94813.09;;;25.23;36.22
71194;BME280;58903;47.210;8.618;2024-01-11T13:34:34;94816.13;;;25.25;36.66
71194;BME280;58903;47.210;8.618;2024-01-11T13:37:10;94821.63;;;25.25;37.04
71194;BME280;58903;47.210;8.618;2024-01-11T13:39:48;94828.38;;;25.24;36.39
71194;BME280;58903;47.210;8.618;2024-01-11T13:42:34;94827.13;;;25.25;36.32
71194;BME280;58903;47.210;8.618;2024-01-11T13:45:10;94835.88;;;25.23;36.58
71194;BME280;58903;47.210;8.618;2024-01-11T13:47:48;94832.63;;;25.25;36.32
71194;BME280;58903;47.210;8.618;2024-01-11T13:50:18;94834.13;;;25.26;36.29
71194;BME280;58903;47.210;8.618;2024-01-11T13:52:54;94840.13;;;25.24;37.16
71194;BME280;58903;47.210;8.618;2024-01-11T13:55:31;94836.38;;;25.22;37.25
71194;BME280;58903;47.210;8.618;2024-01-11T13:58:14;94835.13;;;25.23;36.25
71194;BME280;58903;47.210;8.618;2024-01-11T14:00:44;94842.66;;;25.22;36.86
71194;BME280;58903;47.210;8.618;2024-01-11T14:03:11;94835.13;;;25.23;36.33
71194;BME280;58903;47.210;8.618;2024-01-11T14:05:39;94839.13;;;25.22;36.95
71194;BME280;58903;47.210;8.618;2024-01-11T14:08:15;94833.63;;;25.22;36.36